Time;durP1;ratioP1;P1;durP2;ratioP2;P2;SDS_P1;SDS_P2;PMS_P1;PMS_P2;Temp;Humidity;BMP_temperature;BMP_pressure;BME280_temperature;BME280_humidity;BME280_pressure;Samples;Min_cycle;Max_cycle;Signal;HPM_P1;HPM_P2
2023/12/04 00:02:30;;;;;;;0.10;0.10;;;;;;;;;;5047172;28;20163;-74
2023/12/04 00:05:08;;;;;;;0.10;0.10;;;;;;;;;;5050361;28;20482;-73
2023/12/04 00:07:48;;;;;;;0.10;0.10;;;;;;;;;;5049722;28;20388;-72
2023/12/04 00:10:23;;;;;;;0.10;0.10;;;;;;;;;;5049963;28;20025;-74
2023/12/04 00:13:08;;;;;;;0.10;0.10;;;;;;;;;;5049951;28;20021;-74
2023/12/04 00:15:42;;;;;;;0.22;0.22;;;;;;;;;;5050244;28;20160;-74
2023/12/04 00:18:17;;;;;;;0.10;0.10;;;;;;;;;;5053986;28;20025;-73
2023/12/04 00:21:18;;;;;;;0.10;0.10;;;;;;;;;;5053871;28;20091;-74
2023/12/04 00:23:45;;;;;;;1.23;1.13;;;;;;;;;;5054037;28;20033;-73
2023/12/04 00:26:21;;;;;;;0.10;0.10;;;;;;;;;;5053707;28;20049;-73
2023/12/04 00:28:57;;;;;;;0.10;0.10;;;;;;;;;;5035843;28;20112;-74
2023/12/04 00:31:57;;;;;;;0.10;0.10;;;;;;;;;;5039645;28;20091;-72
2023/12/04 00:34:33;;;;;;;0.32;0.32;;;;;;;;;;5053488;28;20430;-72
2023/12/04 00:37:20;;;;;;;1.17;1.10;;;;;;;;;;5051354;28;20094;-72
2023/12/04 00:40:19;;;;;;;0.10;0.10;;;;;;;;;;5053563;28;20025;-71
2023/12/04 00:43:06;;;;;;;0.10;0.10;;;;;;;;;;5053878;28;20029;-73
2023/12/04 00:45:43;;;;;;;0.13;0.13;;;;;;;;;;5036198;28;20044;-72
2023/12/04 00:48:10;;;;;;;0.65;0.65;;;;;;;;;;5073855;28;20029;-72
2023/12/04 00:51:04;;;;;;;0.10;0.10;;;;;;;;;;5073437;28;20034;-73
2023/12/04 00:53:40;;;;;;;0.10;0.10;;;;;;;;;;5073711;28;20029;-72
2023/12/04 00:56:09;;;;;;;0.10;0.10;;;;;;;;;;5055898;28;20369;-74
2023/12/04 00:58:38;;;;;;;0.10;0.10;;;;;;;;;;5073270;28;20025;-73
2023/12/04 01:01:20;;;;;;;0.10;0.10;;;;;;;;;;5073254;28;20070;-74
2023/12/04 01:04:06;;;;;;;0.05;0.05;;;;;;;;;;5081657;28;20087;-73
2023/12/04 01:06:36;;;;;;;0.10;0.10;;;;;;;;;;5054926;28;20029;-74
2023/12/04 01:09:02;;;;;;;0.10;0.10;;;;;;;;;;5073592;28;20024;-74
2023/12/04 01:11:36;;;;;;;0.10;0.10;;;;;;;;;;5072998;28;20020;-73
2023/12/04 01:14:06;;;;;;;0.10;0.10;;;;;;;;;;5073035;28;20032;-73
2023/12/04 01:16:45;;;;;;;0.20;0.20;;;;;;;;;;5071833;28;20036;-73
2023/12/04 01:19:48;;;;;;;0.10;0.10;;;;;;;;;;5059092;28;20491;-74
2023/12/04 01:22:15;;;;;;;0.10;0.10;;;;;;;;;;5073215;28;20025;-74
2023/12/04 01:24:50;;;;;;;0.10;0.10;;;;;;;;;;5073142;28;20042;-74
2023/12/04 01:27:29;;;;;;;0.10;0.10;;;;;;;;;;5072958;28;20074;-74
2023/12/04 01:29:56;;;;;;;0.10;0.10;;;;;;;;;;5073441;28;20464;-73
2023/12/04 01:32:31;;;;;;;0.10;0.10;;;;;;;;;;5073086;28;20025;-73
2023/12/04 01:35:06;;;;;;;0.10;0.10;;;;;;;;;;5072956;28;20436;-74
2023/12/04 01:37:32;;;;;;;0.10;0.10;;;;;;;;;;5073020;28;20028;-73
2023/12/04 01:39:58;;;;;;;0.10;0.10;;;;;;;;;;5073059;28;20250;-74
2023/12/04 01:42:27;;;;;;;0.10;0.10;;;;;;;;;;5072750;28;20059;-74
2023/12/04 01:45:02;;;;;;;0.10;0.10;;;;;;;;;;5072962;28;20041;-74
2023/12/04 01:47:42;;;;;;;0.10;0.10;;;;;;;;;;5072333;28;20036;-74
2023/12/04 01:50:12;;;;;;;0.10;0.10;;;;;;;;;;5060849;28;20364;-73
2023/12/04 01:52:41;;;;;;;0.10;0.10;;;;;;;;;;5076692;28;20031;-73
2023/12/04 01:55:08;;;;;;;0.57;0.57;;;;;;;;;;5076513;28;20375;-73
2023/12/04 01:57:35;;;;;;;3.47;3.25;;;;;;;;;;5076476;28;20045;-72
2023/12/04 02:00:01;;;;;;;0.20;0.20;;;;;;;;;;5075038;28;20508;-73
2023/12/04 02:02:41;;;;;;;0.10;0.10;;;;;;;;;;5076837;28;20041;-75
2023/12/04 02:05:08;;;;;;;0.20;0.20;;;;;;;;;;5082859;28;20029;-74
2023/12/04 02:07:36;;;;;;;0.10;0.10;;;;;;;;;;5076257;28;20066;-73
2023/12/04 02:10:03;;;;;;;0.10;0.10;;;;;;;;;;5076290;28;20073;-73
2023/12/04 02:12:29;;;;;;;0.10;0.10;;;;;;;;;;5076223;28;20036;-73
2023/12/04 02:14:56;;;;;;;0.10;0.10;;;;;;;;;;5078517;28;20031;-71
2023/12/04 02:17:23;;;;;;;0.10;0.10;;;;;;;;;;5083945;28;20044;-74
2023/12/04 02:19:49;;;;;;;0.10;0.10;;;;;;;;;;5080141;28;20024;-71
2023/12/04 02:22:18;;;;;;;0.20;0.20;;;;;;;;;;5091876;28;20032;-71
2023/12/04 02:24:44;;;;;;;0.00;0.00;;;;;;;;;;5096408;28;20387;-73
2023/12/04 02:27:14;;;;;;;0.10;0.10;;;;;;;;;;5096118;28;20111;-72
2023/12/04 02:29:43;;;;;;;0.10;0.10;;;;;;;;;;5096030;28;20008;-72
2023/12/04 02:32:11;;;;;;;0.10;0.10;;;;;;;;;;5096233;28;20081;-72
2023/12/04 02:34:40;;;;;;;0.20;0.20;;;;;;;;;;5093146;28;20035;-71
2023/12/04 02:37:07;;;;;;;0.10;0.10;;;;;;;;;;5091527;28;20375;-75
2023/12/04 02:39:33;;;;;;;0.10;0.10;;;;;;;;;;5095956;28;20036;-72
2023/12/04 02:41:59;;;;;;;0.75;0.70;;;;;;;;;;5095954;28;20365;-74
2023/12/04 02:44:25;;;;;;;0.43;0.38;;;;;;;;;;5095634;28;20099;-72
2023/12/04 02:46:51;;;;;;;0.10;0.10;;;;;;;;;;5095574;28;20048;-72
2023/12/04 02:49:18;;;;;;;0.10;0.10;;;;;;;;;;5095681;28;20387;-75
2023/12/04 02:51:44;;;;;;;0.20;0.20;;;;;;;;;;5095869;28;20028;-74
2023/12/04 02:54:10;;;;;;;0.20;0.20;;;;;;;;;;5095511;28;20128;-75
2023/12/04 02:56:36;;;;;;;0.10;0.10;;;;;;;;;;5076989;28;20063;-72
2023/12/04 02:59:02;;;;;;;0.88;0.65;;;;;;;;;;5094664;28;20092;-75
2023/12/04 03:01:28;;;;;;;0.10;0.10;;;;;;;;;;5095463;28;20024;-74
2023/12/04 03:03:54;;;;;;;0.10;0.10;;;;;;;;;;5095463;28;20463;-74
2023/12/04 03:06:21;;;;;;;0.10;0.10;;;;;;;;;;5077546;28;20055;-73
2023/12/04 03:08:47;;;;;;;0.10;0.10;;;;;;;;;;5095375;28;20031;-73
2023/12/04 03:11:16;;;;;;;0.10;0.10;;;;;;;;;;5095247;28;20036;-73
2023/12/04 03:13:41;;;;;;;0.10;0.10;;;;;;;;;;5093090;28;20035;-74
2023/12/04 03:16:15;;;;;;;0.10;0.10;;;;;;;;;;5095370;28;20020;-73
2023/12/04 03:19:05;;;;;;;0.10;0.10;;;;;;;;;;5095606;28;20039;-73
2023/12/04 03:21:31;;;;;;;;;;;;;;;;;;5087763;28;20068;-73
2023/12/04 03:23:57;;;;;;;0.10;0.10;;;;;;;;;;5095011;28;19996;-72
2023/12/04 03:26:23;;;;;;;0.10;0.10;;;;;;;;;;5091621;28;20024;-73
2023/12/04 03:28:49;;;;;;;0.10;0.10;;;;;;;;;;5095051;28;20051;-74
2023/12/04 03:31:15;;;;;;;0.10;0.10;;;;;;;;;;5094897;28;20055;-73
2023/12/04 03:33:41;;;;;;;0.10;0.10;;;;;;;;;;5076645;28;20028;-74
2023/12/04 03:36:16;;;;;;;0.10;0.10;;;;;;;;;;5094756;28;20031;-74
2023/12/04 03:38:42;;;;;;;0.10;0.10;;;;;;;;;;5095219;28;20039;-74
2023/12/04 03:41:15;;;;;;;0.10;0.10;;;;;;;;;;5095253;28;20028;-74
2023/12/04 03:43:41;;;;;;;0.10;0.10;;;;;;;;;;5076683;28;20386;-74
2023/12/04 03:46:32;;;;;;;0.10;0.10;;;;;;;;;;5094557;28;20113;-74
2023/12/04 03:49:00;;;;;;;0.90;0.90;;;;;;;;;;5094655;28;20108;-75
2023/12/04 03:51:42;;;;;;;0.10;0.10;;;;;;;;;;5094465;28;20081;-74
2023/12/04 03:54:08;;;;;;;0.10;0.10;;;;;;;;;;5094533;28;20075;-75
2023/12/04 03:56:34;;;;;;;0.10;0.10;;;;;;;;;;5092874;28;20115;-74
2023/12/04 03:59:27;;;;;;;0.10;0.10;;;;;;;;;;5094331;28;20103;-74
2023/12/04 04:02:06;;;;;;;0.10;0.10;;;;;;;;;;5093565;28;20104;-74
2023/12/04 04:04:56;;;;;;;0.10;0.10;;;;;;;;;;5062273;28;20046;-72
2023/12/04 04:07:47;;;;;;;0.10;0.10;;;;;;;;;;5090434;28;20024;-71
2023/12/04 04:10:43;;;;;;;0.10;0.10;;;;;;;;;;5089416;28;20113;-72
2023/12/04 04:13:09;;;;;;;0.20;0.20;;;;;;;;;;5089704;28;20478;-74
2023/12/04 04:15:36;;;;;;;0.10;0.10;;;;;;;;;;5090602;28;20035;-71
2023/12/04 04:18:02;;;;;;;0.10;0.10;;;;;;;;;;5090049;28;20031;-74
2023/12/04 04:20:28;;;;;;;0.10;0.10;;;;;;;;;;5090173;28;20024;-74
2023/12/04 04:26:25;;;;;;;0.10;0.10;;;;;;;;;;5090201;28;20040;-72
2023/12/04 04:29:15;;;;;;;0.10;0.10;;;;;;;;;;5074819;28;20112;-73
2023/12/04 04:31:41;;;;;;;0.20;0.20;;;;;;;;;;5089871;28;20467;-73
2023/12/04 04:34:07;;;;;;;0.10;0.10;;;;;;;;;;5090019;28;20032;-75
2023/12/04 04:36:35;;;;;;;0.08;0.08;;;;;;;;;;5072303;28;20067;-75
2023/12/04 04:39:01;;;;;;;0.10;0.10;;;;;;;;;;5089698;28;20072;-72
2023/12/04 04:41:28;;;;;;;0.10;0.10;;;;;;;;;;5090141;28;20028;-75
2023/12/04 04:43:54;;;;;;;0.00;0.00;;;;;;;;;;5089633;28;20530;-73
2023/12/04 04:49:37;;;;;;;0.10;0.10;;;;;;;;;;5089371;28;20046;-74
2023/12/04 04:52:03;;;;;;;0.10;0.10;;;;;;;;;;5089794;28;20028;-75
2023/12/04 04:54:31;;;;;;;0.00;0.00;;;;;;;;;;5089656;28;20536;-74
2023/12/04 04:56:57;;;;;;;0.10;0.10;;;;;;;;;;5089923;28;20146;-76
2023/12/04 04:59:24;;;;;;;0.10;0.10;;;;;;;;;;5089282;28;20484;-73
2023/12/04 05:01:50;;;;;;;0.10;0.10;;;;;;;;;;5088258;28;20032;-75
2023/12/04 05:04:16;;;;;;;0.10;0.10;;;;;;;;;;5087948;28;20070;-73
2023/12/04 05:06:42;;;;;;;0.10;0.10;;;;;;;;;;5089611;28;20059;-75
2023/12/04 05:09:08;;;;;;;0.10;0.10;;;;;;;;;;5071725;28;20032;-75
2023/12/04 05:11:34;;;;;;;0.10;0.10;;;;;;;;;;5088198;28;20039;-76
2023/12/04 05:14:01;;;;;;;0.10;0.10;;;;;;;;;;5089515;28;20020;-73
2023/12/04 05:16:42;;;;;;;0.10;0.10;;;;;;;;;;5089328;28;20036;-73
2023/12/04 05:19:59;;;;;;;0.10;0.10;;;;;;;;;;5027473;28;20413;-73
2023/12/04 05:22:26;;;;;;;0.00;0.00;;;;;;;;;;5026881;28;20072;-74
2023/12/04 05:24:52;;;;;;;0.10;0.10;;;;;;;;;;5031363;28;20033;-75
2023/12/04 05:27:18;;;;;;;0.10;0.10;;;;;;;;;;5030933;28;20037;-74
2023/12/04 05:29:44;;;;;;;0.03;0.03;;;;;;;;;;5030787;28;20424;-74
2023/12/04 05:32:10;;;;;;;0.10;0.10;;;;;;;;;;5030988;28;20029;-72
2023/12/04 05:34:36;;;;;;;0.00;0.00;;;;;;;;;;5030800;28;20393;-73
2023/12/04 05:37:02;;;;;;;0.10;0.10;;;;;;;;;;5030915;28;20041;-74
2023/12/04 05:39:49;;;;;;;0.17;0.17;;;;;;;;;;5030810;28;20037;-73
2023/12/04 05:46:03;;;;;;;0.10;0.10;;;;;;;;;;5015023;28;20046;-74
2023/12/04 05:48:37;;;;;;;0.10;0.10;;;;;;;;;;5027468;28;20033;-74
2023/12/04 05:51:36;;;;;;;0.10;0.10;;;;;;;;;;5061146;28;20047;-73
2023/12/04 05:54:04;;;;;;;0.10;0.10;;;;;;;;;;5052498;28;20136;-73
2023/12/04 05:56:30;;;;;;;0.10;0.10;;;;;;;;;;5067497;28;20178;-73
2023/12/04 05:58:56;;;;;;;0.10;0.10;;;;;;;;;;5072521;28;20502;-72
2023/12/04 06:01:31;;;;;;;0.08;0.08;;;;;;;;;;5071535;28;20028;-72
2023/12/04 06:03:58;;;;;;;0.10;0.10;;;;;;;;;;5072510;28;20502;-72
2023/12/04 06:06:24;;;;;;;0.10;0.10;;;;;;;;;;5066096;28;20056;-72
2023/12/04 06:08:56;;;;;;;0.10;0.10;;;;;;;;;;5070832;28;20483;-72
2023/12/04 06:11:22;;;;;;;0.13;0.13;;;;;;;;;;5070827;28;20379;-71
2023/12/04 06:13:48;;;;;;;0.00;0.00;;;;;;;;;;5072476;28;20044;-72
2023/12/04 06:16:14;;;;;;;0.10;0.10;;;;;;;;;;5072326;28;20086;-70
2023/12/04 06:21:28;;;;;;;0.10;0.10;;;;;;;;;;5067127;28;20021;-73
2023/12/04 06:23:54;;;;;;;0.03;0.03;;;;;;;;;;5071901;28;20499;-73
2023/12/04 06:26:42;;;;;;;0.10;0.10;;;;;;;;;;5066712;28;20029;-74
2023/12/04 06:29:09;;;;;;;0.00;0.00;;;;;;;;;;5052318;28;20020;-73
2023/12/04 06:31:35;;;;;;;0.10;0.10;;;;;;;;;;5064458;28;20036;-77
2023/12/04 06:34:04;;;;;;;0.10;0.10;;;;;;;;;;5071003;28;20468;-74
2023/12/04 06:36:58;;;;;;;0.10;0.10;;;;;;;;;;5071581;28;20033;-73
2023/12/04 06:39:36;;;;;;;0.10;0.10;;;;;;;;;;5066983;28;20033;-72
2023/12/04 06:42:03;;;;;;;0.10;0.10;;;;;;;;;;5062918;28;20024;-75
2023/12/04 06:44:29;;;;;;;0.10;0.10;;;;;;;;;;5065004;28;20548;-73
2023/12/04 06:47:43;;;;;;;0.10;0.10;;;;;;;;;;5086976;28;20495;-74
2023/12/04 06:50:08;;;;;;;0.10;0.10;;;;;;;;;;5090476;28;20119;-74
2023/12/04 06:52:34;;;;;;;0.10;0.10;;;;;;;;;;5091944;28;20425;-71
2023/12/04 06:55:00;;;;;;;0.10;0.10;;;;;;;;;;5091715;28;20551;-74
2023/12/04 06:57:26;;;;;;;0.10;0.10;;;;;;;;;;5091252;28;20091;-74
2023/12/04 06:59:53;;;;;;;0.10;0.10;;;;;;;;;;5064980;28;20048;-74
2023/12/04 07:02:19;;;;;;;0.10;0.10;;;;;;;;;;5084911;28;20031;-74
2023/12/04 07:04:45;;;;;;;0.10;0.10;;;;;;;;;;5090523;28;20053;-71
2023/12/04 07:07:23;;;;;;;0.10;0.10;;;;;;;;;;5078702;28;20657;-72
2023/12/04 07:09:52;;;;;;;0.10;0.10;;;;;;;;;;5073748;28;20028;-73
2023/12/04 07:12:17;;;;;;;0.15;0.15;;;;;;;;;;5065509;28;20459;-73
2023/12/04 07:15:19;;;;;;;0.43;0.43;;;;;;;;;;5086937;28;20030;-73
2023/12/04 07:17:45;;;;;;;0.20;0.20;;;;;;;;;;5035408;28;20326;-73
2023/12/04 07:20:11;;;;;;;0.10;0.10;;;;;;;;;;5045937;28;20064;-74
2023/12/04 07:22:38;;;;;;;0.10;0.10;;;;;;;;;;5045689;28;20204;-71
2023/12/04 07:25:08;;;;;;;0.10;0.10;;;;;;;;;;5047722;28;20492;-71
2023/12/04 07:27:34;;;;;;;0.85;0.85;;;;;;;;;;5074778;28;20083;-73
2023/12/04 07:30:03;;;;;;;0.20;0.20;;;;;;;;;;5089059;28;20027;-73
2023/12/04 07:33:05;;;;;;;0.10;0.10;;;;;;;;;;5071521;28;20058;-74
2023/12/04 07:35:31;;;;;;;0.10;0.10;;;;;;;;;;5045201;28;20033;-74
2023/12/04 07:38:00;;;;;;;0.10;0.10;;;;;;;;;;5071384;28;20040;-73
2023/12/04 07:40:55;;;;;;;0.20;0.20;;;;;;;;;;5087985;28;20044;-73
2023/12/04 07:43:21;;;;;;;;;;;;;;;;;;5071763;28;20494;-74
2023/12/04 07:45:47;;;;;;;0.10;0.10;;;;;;;;;;5089293;28;19925;-73
2023/12/04 07:48:13;;;;;;;0.10;0.10;;;;;;;;;;5090105;28;20111;-72
2023/12/04 07:50:40;;;;;;;0.10;0.10;;;;;;;;;;5090482;28;20369;-73
2023/12/04 07:53:07;;;;;;;0.10;0.10;;;;;;;;;;5090196;28;20024;-74
2023/12/04 07:55:33;;;;;;;0.10;0.10;;;;;;;;;;5089735;28;20454;-73
2023/12/04 07:58:00;;;;;;;0.10;0.10;;;;;;;;;;5090232;28;20055;-75
2023/12/04 08:00:41;;;;;;;2.85;2.72;;;;;;;;;;5086395;28;20071;-71
2023/12/04 08:03:11;;;;;;;0.10;0.10;;;;;;;;;;5080662;28;20038;-73
2023/12/04 08:05:40;;;;;;;0.10;0.10;;;;;;;;;;5076952;28;20031;-74
2023/12/04 08:08:12;;;;;;;0.10;0.10;;;;;;;;;;5085557;28;20028;-74
2023/12/04 08:10:38;;;;;;;0.10;0.10;;;;;;;;;;5065147;28;20024;-73
2023/12/04 08:13:05;;;;;;;0.10;0.10;;;;;;;;;;5069581;28;20021;-72
2023/12/04 08:15:31;;;;;;;0.20;0.20;;;;;;;;;;5069346;28;20066;-72
2023/12/04 08:17:57;;;;;;;0.10;0.10;;;;;;;;;;5070052;28;20044;-74
2023/12/04 08:20:23;;;;;;;0.10;0.10;;;;;;;;;;5069601;28;20052;-73
2023/12/04 08:22:50;;;;;;;0.10;0.10;;;;;;;;;;5054566;28;20173;-73
2023/12/04 08:25:16;;;;;;;0.13;0.13;;;;;;;;;;5085306;28;20031;-73
2023/12/04 08:27:42;;;;;;;0.10;0.10;;;;;;;;;;5089289;28;20024;-75
2023/12/04 08:30:35;;;;;;;0.22;0.22;;;;;;;;;;5072256;28;20476;-74
2023/12/04 08:33:01;;;;;;;0.10;0.10;;;;;;;;;;5053191;28;20040;-73
2023/12/04 08:35:27;;;;;;;3.00;2.83;;;;;;;;;;5076285;28;20380;-75
2023/12/04 08:37:53;;;;;;;0.20;0.20;;;;;;;;;;5068992;28;20041;-73
2023/12/04 08:40:19;;;;;;;0.10;0.10;;;;;;;;;;5069429;28;20131;-74
2023/12/04 08:42:45;;;;;;;0.10;0.10;;;;;;;;;;5073109;28;20507;-71
2023/12/04 08:45:11;;;;;;;0.10;0.10;;;;;;;;;;5078376;28;20241;-73
2023/12/04 08:47:37;;;;;;;0.10;0.10;;;;;;;;;;5089062;28;20024;-73
2023/12/04 08:50:03;;;;;;;0.10;0.10;;;;;;;;;;5087976;28;20028;-74
2023/12/04 08:52:29;;;;;;;0.10;0.10;;;;;;;;;;5077928;28;20031;-73
2023/12/04 08:54:55;;;;;;;0.10;0.10;;;;;;;;;;5085648;28;20032;-73
2023/12/04 08:57:21;;;;;;;0.10;0.10;;;;;;;;;;5068336;28;20029;-72
2023/12/04 08:59:47;;;;;;;0.10;0.10;;;;;;;;;;5068713;28;20029;-73
2023/12/04 09:02:14;;;;;;;0.10;0.10;;;;;;;;;;5068684;28;20030;-74
2023/12/04 09:04:40;;;;;;;0.10;0.10;;;;;;;;;;5087540;28;20387;-72
2023/12/04 09:07:06;;;;;;;0.10;0.10;;;;;;;;;;5082680;28;20028;-74
2023/12/04 09:09:32;;;;;;;0.10;0.10;;;;;;;;;;5074291;28;20495;-74
2023/12/04 09:11:58;;;;;;;0.10;0.10;;;;;;;;;;5076195;28;20028;-72
2023/12/04 09:14:24;;;;;;;0.10;0.10;;;;;;;;;;5070240;28;20032;-72
2023/12/04 09:16:51;;;;;;;0.20;0.20;;;;;;;;;;5088191;28;20059;-74
2023/12/04 09:19:17;;;;;;;0.10;0.10;;;;;;;;;;5085018;28;20052;-72
2023/12/04 09:21:44;;;;;;;0.10;0.10;;;;;;;;;;5088607;28;20032;-73
2023/12/04 09:24:10;;;;;;;0.10;0.10;;;;;;;;;;5094515;28;20052;-73
2023/12/04 09:26:36;;;;;;;0.10;0.10;;;;;;;;;;5073393;28;20027;-71
2023/12/04 09:29:03;;;;;;;0.10;0.10;;;;;;;;;;5085887;28;20032;-73
2023/12/04 09:31:29;;;;;;;0.10;0.10;;;;;;;;;;5082719;28;20021;-74
2023/12/04 09:33:54;;;;;;;0.30;0.30;;;;;;;;;;5084064;28;20077;-73
2023/12/04 09:36:20;;;;;;;0.20;0.20;;;;;;;;;;5080812;28;20029;-70
2023/12/04 09:39:05;;;;;;;0.10;0.10;;;;;;;;;;5078518;28;20021;-73
2023/12/04 09:41:59;;;;;;;;;;;;;;;;;;5078783;28;20129;-73
2023/12/04 09:44:37;;;;;;;0.10;0.10;;;;;;;;;;5078089;28;19953;-71
2023/12/04 09:47:04;;;;;;;0.20;0.20;;;;;;;;;;5074484;28;20257;-73
2023/12/04 09:49:30;;;;;;;0.22;0.22;;;;;;;;;;5070408;28;20470;-74
2023/12/04 09:52:07;;;;;;;0.10;0.10;;;;;;;;;;5067331;28;20482;-74
2023/12/04 09:54:58;;;;;;;0.30;0.30;;;;;;;;;;5074293;28;20137;-74
2023/12/04 09:57:24;;;;;;;0.10;0.10;;;;;;;;;;5076717;28;20017;-74
2023/12/04 09:59:51;;;;;;;0.10;0.10;;;;;;;;;;5086191;28;20051;-73
2023/12/04 10:02:17;;;;;;;0.10;0.10;;;;;;;;;;5079905;28;20077;-73
2023/12/04 10:04:52;;;;;;;0.10;0.10;;;;;;;;;;5075547;28;20032;-71
2023/12/04 10:07:18;;;;;;;0.10;0.10;;;;;;;;;;5087611;28;20100;-72
2023/12/04 10:09:44;;;;;;;0.10;0.10;;;;;;;;;;5066057;28;20186;-71
2023/12/04 10:12:10;;;;;;;0.20;0.20;;;;;;;;;;5085782;28;20095;-73
2023/12/04 10:14:36;;;;;;;0.10;0.10;;;;;;;;;;5089805;28;20155;-74
2023/12/04 10:17:13;;;;;;;0.10;0.10;;;;;;;;;;5081613;28;20030;-73
2023/12/04 10:19:39;;;;;;;0.10;0.10;;;;;;;;;;5072927;28;20040;-72
2023/12/04 10:22:26;;;;;;;0.10;0.10;;;;;;;;;;5054211;28;20029;-74
2023/12/04 10:24:51;;;;;;;0.20;0.20;;;;;;;;;;5071623;28;20036;-75
2023/12/04 10:27:18;;;;;;;0.20;0.20;;;;;;;;;;5071477;28;20468;-74
2023/12/04 10:29:48;;;;;;;0.10;0.10;;;;;;;;;;5051366;28;20029;-74
2023/12/04 10:32:21;;;;;;;0.20;0.20;;;;;;;;;;5069197;28;20058;-73
2023/12/04 10:34:48;;;;;;;0.50;0.50;;;;;;;;;;5069228;28;20380;-74
2023/12/04 10:37:14;;;;;;;0.10;0.10;;;;;;;;;;5080712;28;20035;-73
2023/12/04 10:39:47;;;;;;;0.68;0.68;;;;;;;;;;5082738;28;20036;-73
2023/12/04 10:42:24;;;;;;;0.20;0.20;;;;;;;;;;5087783;28;20027;-73
2023/12/04 10:44:50;;;;;;;0.10;0.10;;;;;;;;;;5069847;28;20383;-71
2023/12/04 10:47:16;;;;;;;0.30;0.30;;;;;;;;;;5071084;28;20058;-71
2023/12/04 10:49:43;;;;;;;0.60;0.60;;;;;;;;;;5088818;28;20111;-74
2023/12/04 10:52:09;;;;;;;0.30;0.30;;;;;;;;;;5090410;28;20038;-74
2023/12/04 10:54:35;;;;;;;0.20;0.20;;;;;;;;;;5091161;28;20040;-75
2023/12/04 10:57:04;;;;;;;0.10;0.10;;;;;;;;;;5089184;28;20067;-74
2023/12/04 10:59:32;;;;;;;0.20;0.20;;;;;;;;;;5089605;28;20108;-73
2023/12/04 11:02:02;;;;;;;0.20;0.20;;;;;;;;;;5071063;28;20775;-73
2023/12/04 11:04:30;;;;;;;0.10;0.10;;;;;;;;;;5088394;28;20070;-74
2023/12/04 11:06:56;;;;;;;0.10;0.10;;;;;;;;;;5088981;28;20031;-74
2023/12/04 11:09:26;;;;;;;0.10;0.10;;;;;;;;;;5088428;28;20040;-73
2023/12/04 11:11:57;;;;;;;0.10;0.10;;;;;;;;;;5071620;28;20035;-74
2023/12/04 11:14:24;;;;;;;0.10;0.10;;;;;;;;;;5080826;28;20051;-73
2023/12/04 11:16:57;;;;;;;0.10;0.10;;;;;;;;;;5086627;28;20032;-72
2023/12/04 11:19:29;;;;;;;0.10;0.10;;;;;;;;;;5072536;28;20054;-74
2023/12/04 11:22:01;;;;;;;0.15;0.15;;;;;;;;;;5087983;28;20343;-74
2023/12/04 11:24:28;;;;;;;0.10;0.10;;;;;;;;;;5088775;28;20035;-73
2023/12/04 11:27:20;;;;;;;0.10;0.10;;;;;;;;;;5088934;28;20063;-73
2023/12/04 11:30:12;;;;;;;0.10;0.10;;;;;;;;;;5085865;28;20093;-72
2023/12/04 11:32:45;;;;;;;0.10;0.10;;;;;;;;;;5088154;28;20493;-72
2023/12/04 11:35:13;;;;;;;0.10;0.10;;;;;;;;;;5088592;28;20360;-71
2023/12/04 11:38:15;;;;;;;0.10;0.10;;;;;;;;;;5088387;28;20040;-73
2023/12/04 11:40:48;;;;;;;0.10;0.10;;;;;;;;;;5056574;28;20041;-72
2023/12/04 11:46:34;;;;;;;0.13;0.13;;;;;;;;;;5026181;28;20602;-73
2023/12/04 11:49:40;;;;;;;0.17;0.17;;;;;;;;;;5071332;28;20031;-72
2023/12/04 11:52:06;;;;;;;0.52;0.52;;;;;;;;;;5087270;28;20156;-71
2023/12/04 11:54:59;;;;;;;0.10;0.10;;;;;;;;;;5065633;28;20033;-73
2023/12/04 11:57:32;;;;;;;0.10;0.10;;;;;;;;;;5068356;28;20483;-73
2023/12/04 12:00:25;;;;;;;0.10;0.10;;;;;;;;;;5082944;28;20110;-73
2023/12/04 12:02:54;;;;;;;0.10;0.10;;;;;;;;;;5082729;28;20028;-72
2023/12/04 12:05:23;;;;;;;0.13;0.13;;;;;;;;;;5085785;28;20107;-74
2023/12/04 12:07:49;;;;;;;0.10;0.10;;;;;;;;;;5077954;28;20024;-74
2023/12/04 12:10:15;;;;;;;0.17;0.17;;;;;;;;;;5062375;28;20032;-72
2023/12/04 12:12:42;;;;;;;0.10;0.10;;;;;;;;;;5081769;28;20518;-74
2023/12/04 12:15:34;;;;;;;0.10;0.10;;;;;;;;;;5087805;28;20092;-72
2023/12/04 12:18:00;;;;;;;0.30;0.30;;;;;;;;;;5085115;28;20044;-75
2023/12/04 12:20:30;;;;;;;0.10;0.10;;;;;;;;;;5052467;28;20391;-76
2023/12/04 12:22:56;;;;;;;0.60;0.60;;;;;;;;;;5081193;28;20032;-76
2023/12/04 12:25:49;;;;;;;0.10;0.10;;;;;;;;;;5085803;28;20028;-77
2023/12/04 12:28:15;;;;;;;0.20;0.20;;;;;;;;;;5064929;28;20052;-76
2023/12/04 12:31:00;;;;;;;0.10;0.10;;;;;;;;;;5071130;28;20030;-77
2023/12/04 12:33:26;;;;;;;0.20;0.20;;;;;;;;;;5084569;28;20063;-73
2023/12/04 12:35:52;;;;;;;0.98;0.77;;;;;;;;;;5086976;28;20056;-76
2023/12/04 12:38:18;;;;;;;0.35;0.35;;;;;;;;;;5087029;28;20078;-76
2023/12/04 12:40:44;;;;;;;0.20;0.20;;;;;;;;;;5048747;28;20066;-76
2023/12/04 12:43:10;;;;;;;0.10;0.10;;;;;;;;;;5086725;28;20012;-76
2023/12/04 12:45:43;;;;;;;0.52;0.52;;;;;;;;;;5086415;28;20624;-75
2023/12/04 12:48:16;;;;;;;0.10;0.10;;;;;;;;;;5087530;28;20031;-73
2023/12/04 12:50:43;;;;;;;0.60;0.60;;;;;;;;;;5087073;28;20039;-75
2023/12/04 12:53:10;;;;;;;1.27;1.17;;;;;;;;;;5087085;28;20479;-77
2023/12/04 12:56:08;;;;;;;0.85;0.85;;;;;;;;;;5077763;28;20037;-74
2023/12/04 12:58:38;;;;;;;0.85;0.85;;;;;;;;;;5040254;28;20040;-76
2023/12/04 13:01:10;;;;;;;2.63;1.00;;;;;;;;;;5082707;28;20024;-76
2023/12/04 13:03:37;;;;;;;0.10;0.10;;;;;;;;;;5075221;28;20394;-76
2023/12/04 13:06:32;;;;;;;0.10;0.10;;;;;;;;;;5066646;28;20029;-76
2023/12/04 13:08:58;;;;;;;0.40;0.40;;;;;;;;;;5076419;28;20342;-75
2023/12/04 13:11:54;;;;;;;0.30;0.30;;;;;;;;;;5078042;28;20465;-77
2023/12/04 13:14:41;;;;;;;0.10;0.10;;;;;;;;;;4996252;28;20120;-76
2023/12/04 13:17:08;;;;;;;0.10;0.10;;;;;;;;;;5021644;28;20045;-77
2023/12/04 13:19:38;;;;;;;0.10;0.10;;;;;;;;;;5029249;28;20037;-75
2023/12/04 13:22:04;;;;;;;0.10;0.10;;;;;;;;;;5019003;28;20033;-76
2023/12/04 13:24:30;;;;;;;0.10;0.10;;;;;;;;;;5032595;28;20500;-78
2023/12/04 13:26:57;;;;;;;0.10;0.10;;;;;;;;;;5022808;28;20025;-76
2023/12/04 13:29:23;;;;;;;0.10;0.10;;;;;;;;;;5030736;28;20144;-74
2023/12/04 13:32:07;;;;;;;0.10;0.10;;;;;;;;;;5043405;28;20504;-78
2023/12/04 13:34:34;;;;;;;0.10;0.10;;;;;;;;;;5006326;28;20396;-76
2023/12/04 13:37:15;;;;;;;0.10;0.10;;;;;;;;;;5023805;28;20037;-76
2023/12/04 13:40:08;;;;;;;0.10;0.10;;;;;;;;;;5004533;28;20606;-78
2023/12/04 13:45:21;;;;;;;0.10;0.10;;;;;;;;;;5054823;28;20036;-77
2023/12/04 13:47:49;;;;;;;0.10;0.10;;;;;;;;;;5091529;28;20016;-75
2023/12/04 13:50:15;;;;;;;0.10;0.10;;;;;;;;;;5074292;28;20036;-75
2023/12/04 13:52:42;;;;;;;0.10;0.10;;;;;;;;;;5092954;28;20027;-76
2023/12/04 13:55:20;;;;;;;0.10;0.10;;;;;;;;;;5083550;28;20041;-76
2023/12/04 14:00:25;;;;;;;0.10;0.10;;;;;;;;;;5074100;28;20037;-77
2023/12/04 14:02:59;;;;;;;0.32;0.32;;;;;;;;;;5092085;28;20020;-73
2023/12/04 14:05:25;;;;;;;0.10;0.10;;;;;;;;;;5073246;28;20398;-78
2023/12/04 14:08:04;;;;;;;0.10;0.10;;;;;;;;;;5086254;28;20017;-75
2023/12/04 14:10:36;;;;;;;0.20;0.20;;;;;;;;;;5092353;28;20497;-77
2023/12/04 14:13:05;;;;;;;0.10;0.10;;;;;;;;;;5092079;28;20158;-77
2023/12/04 14:15:31;;;;;;;0.17;0.17;;;;;;;;;;5077506;28;20032;-77
2023/12/04 14:18:04;;;;;;;0.10;0.10;;;;;;;;;;5069332;28;20021;-75
2023/12/04 14:20:52;;;;;;;;;;;;;;;;;;;;;
2023/12/04 14:23:20;;;;;;;0.10;0.10;;;;;;;;;;5075410;28;20514;-77
2023/12/04 14:26:07;;;;;;;0.10;0.10;;;;;;;;;;5071080;28;20024;-76
2023/12/04 14:28:33;;;;;;;1.50;1.45;;;;;;;;;;5084096;28;20481;-73
2023/12/04 14:31:09;;;;;;;0.45;0.45;;;;;;;;;;5070336;28;20024;-78
2023/12/04 14:33:35;;;;;;;0.10;0.10;;;;;;;;;;5089108;28;20035;-76
2023/12/04 14:36:01;;;;;;;0.10;0.10;;;;;;;;;;5087571;28;20024;-76
2023/12/04 14:38:27;;;;;;;0.10;0.10;;;;;;;;;;5087647;28;20024;-75
2023/12/04 14:41:03;;;;;;;0.47;0.47;;;;;;;;;;5088942;28;20082;-76
2023/12/04 14:43:50;;;;;;;0.10;0.10;;;;;;;;;;5087714;28;20054;-76
2023/12/04 14:50:15;;;;;;;0.10;0.10;;;;;;;;;;4990507;28;20490;-76
2023/12/04 14:52:49;;;;;;;9.20;1.60;;;;;;;;;;5004726;28;20288;-76
2023/12/04 14:56:46;;;;;;;0.20;0.20;;;;;;;;;;5055125;28;20502;-76
2023/12/04 15:21:24;;;;;;;0.10;0.10;;;;;;;;;;5074234;28;20436;-79
2023/12/04 15:23:50;;;;;;;0.10;0.10;;;;;;;;;;5063362;28;20028;-76
2023/12/04 15:26:30;;;;;;;0.10;0.10;;;;;;;;;;5065107;28;20451;-75
2023/12/04 15:28:58;;;;;;;0.20;0.20;;;;;;;;;;5085450;28;20020;-75
2023/12/04 15:31:45;;;;;;;1.27;1.17;;;;;;;;;;5088024;28;20020;-75
2023/12/04 15:34:12;;;;;;;0.20;0.20;;;;;;;;;;5088046;28;20117;-75
2023/12/04 15:36:38;;;;;;;0.10;0.10;;;;;;;;;;5083327;28;20059;-77
2023/12/04 15:39:09;;;;;;;0.20;0.20;;;;;;;;;;5078803;28;20494;-77
2023/12/04 15:41:36;;;;;;;0.10;0.10;;;;;;;;;;5074963;28;20032;-72
2023/12/04 15:44:05;;;;;;;0.10;0.10;;;;;;;;;;5041435;28;20479;-76
2023/12/04 15:46:37;;;;;;;0.10;0.10;;;;;;;;;;5057212;28;20130;-76
2023/12/04 15:49:03;;;;;;;0.10;0.10;;;;;;;;;;5076450;28;20261;-76
2023/12/04 15:51:29;;;;;;;0.20;0.20;;;;;;;;;;5077280;28;20024;-75
2023/12/04 15:53:56;;;;;;;0.20;0.20;;;;;;;;;;5055619;28;20509;-75
2023/12/04 15:56:22;;;;;;;0.20;0.20;;;;;;;;;;5077207;28;20043;-76
2023/12/04 15:58:48;;;;;;;2.60;2.53;;;;;;;;;;5069963;28;20032;-75
2023/12/04 16:01:14;;;;;;;0.10;0.10;;;;;;;;;;5050065;28;20462;-77
2023/12/04 16:03:44;;;;;;;0.20;0.20;;;;;;;;;;5067350;28;20563;-76